sensor_id;sensor_type;location;lat;lon;timestamp;pressure;altitude;pressure_sealevel;temperature;humidity
54854;BME280;40747;49.480;8.658;2023-09-12T00:00:32;99839.31;;;21.72;76.45
54854;BME280;40747;49.480;8.658;2023-09-12T00:02:57;99856.97;;;21.74;76.44
54854;BME280;40747;49.480;8.658;2023-09-12T00:05:23;99848.66;;;21.77;76.86
54854;BME280;40747;49.480;8.658;2023-09-12T00:07:52;99844.22;;;21.67;77.63
54854;BME280;40747;49.480;8.658;2023-09-12T00:10:18;99851.97;;;21.49;77.90
54854;BME280;40747;49.480;8.658;2023-09-12T00:12:43;99857.19;;;21.50;78.63
54854;BME280;40747;49.480;8.658;2023-09-12T00:15:08;99864.88;;;21.43;79.19
54854;BME280;40747;49.480;8.658;2023-09-12T00:17:34;99863.97;;;21.33;78.97
54854;BME280;40747;49.480;8.658;2023-09-12T00:19:59;99864.66;;;21.03;80.26
54854;BME280;40747;49.480;8.658;2023-09-12T00:22:24;99867.47;;;21.01;80.04
54854;BME280;40747;49.480;8.658;2023-09-12T00:24:49;99871.16;;;20.77;80.01
54854;BME280;40747;49.480;8.658;2023-09-12T00:27:15;99867.63;;;20.77;80.40
54854;BME280;40747;49.480;8.658;2023-09-12T00:29:40;99868.94;;;20.83;80.41
54854;BME280;40747;49.480;8.658;2023-09-12T00:32:05;99867.00;;;20.96;80.20
54854;BME280;40747;49.480;8.658;2023-09-12T00:34:30;99861.59;;;21.07;81.46
54854;BME280;40747;49.480;8.658;2023-09-12T00:36:56;99865.84;;;21.10;80.89
54854;BME280;40747;49.480;8.658;2023-09-12T00:39:21;99850.16;;;21.05;80.95
54854;BME280;40747;49.480;8.658;2023-09-12T00:41:46;99865.47;;;21.15;80.75
54854;BME280;40747;49.480;8.658;2023-09-12T00:44:12;99852.81;;;21.17;80.09
54854;BME280;40747;49.480;8.658;2023-09-12T00:46:38;99843.81;;;21.18;80.79
54854;BME280;40747;49.480;8.658;2023-09-12T00:49:06;99848.06;;;21.20;81.05
54854;BME280;40747;49.480;8.658;2023-09-12T00:51:33;99840.66;;;21.13;80.67
54854;BME280;40747;49.480;8.658;2023-09-12T00:54:00;99846.13;;;21.11;80.81
54854;BME280;40747;49.480;8.658;2023-09-12T00:56:26;99846.13;;;21.11;81.05
54854;BME280;40747;49.480;8.658;2023-09-12T00:58:51;99828.00;;;21.03;81.11
54854;BME280;40747;49.480;8.658;2023-09-12T01:01:18;99833.13;;;21.06;81.21
54854;BME280;40747;49.480;8.658;2023-09-12T01:03:44;99826.56;;;20.99;81.37
54854;BME280;40747;49.480;8.658;2023-09-12T01:06:10;99821.47;;;20.96;80.20
54854;BME280;40747;49.480;8.658;2023-09-12T01:08:36;99826.94;;;20.94;80.19
54854;BME280;40747;49.480;8.658;2023-09-12T01:11:03;99830.50;;;20.95;78.57
54854;BME280;40747;49.480;8.658;2023-09-12T01:13:29;99825.28;;;20.93;77.96
54854;BME280;40747;49.480;8.658;2023-09-12T01:15:54;99819.03;;;20.93;78.27
54854;BME280;40747;49.480;8.658;2023-09-12T01:18:19;99827.69;;;20.97;77.26
54854;BME280;40747;49.480;8.658;2023-09-12T01:21:10;99819.28;;;21.01;76.20
54854;BME280;40747;49.480;8.658;2023-09-12T01:24:09;99825.19;;;21.05;77.05
54854;BME280;40747;49.480;8.658;2023-09-12T01:26:42;99830.22;;;20.98;78.43
54854;BME280;40747;49.480;8.658;2023-09-12T01:29:14;99828.41;;;20.99;77.89
54854;BME280;40747;49.480;8.658;2023-09-12T01:31:42;99820.63;;;20.95;78.92
54854;BME280;40747;49.480;8.658;2023-09-12T01:34:12;99822.97;;;20.89;77.14
54854;BME280;40747;49.480;8.658;2023-09-12T01:36:38;99799.38;;;20.71;78.14
54854;BME280;40747;49.480;8.658;2023-09-12T01:39:04;99822.72;;;20.81;75.81
54854;BME280;40747;49.480;8.658;2023-09-12T01:41:31;99799.16;;;20.74;75.34
54854;BME280;40747;49.480;8.658;2023-09-12T01:43:57;99794.91;;;20.72;74.71
54854;BME280;40747;49.480;8.658;2023-09-12T01:46:25;99814.31;;;20.85;73.47
54854;BME280;40747;49.480;8.658;2023-09-12T01:48:51;99807.03;;;20.87;73.96
54854;BME280;40747;49.480;8.658;2023-09-12T01:51:19;99804.47;;;20.86;75.06
54854;BME280;40747;49.480;8.658;2023-09-12T01:53:45;99807.72;;;20.89;74.98
54854;BME280;40747;49.480;8.658;2023-09-12T01:56:12;99793.78;;;20.86;75.73
54854;BME280;40747;49.480;8.658;2023-09-12T01:58:38;99807.19;;;20.74;73.92
54854;BME280;40747;49.480;8.658;2023-09-12T02:01:04;99795.13;;;20.57;74.20
54854;BME280;40747;49.480;8.658;2023-09-12T02:03:29;99800.72;;;20.66;74.59
54854;BME280;40747;49.480;8.658;2023-09-12T02:05:54;99797.31;;;20.63;74.77
54854;BME280;40747;49.480;8.658;2023-09-12T02:08:20;99796.34;;;20.65;74.66
54854;BME280;40747;49.480;8.658;2023-09-12T02:10:45;99798.66;;;20.69;74.50
54854;BME280;40747;49.480;8.658;2023-09-12T02:13:10;99796.47;;;20.74;74.41
54854;BME280;40747;49.480;8.658;2023-09-12T02:15:35;99793.81;;;20.74;74.12
54854;BME280;40747;49.480;8.658;2023-09-12T02:18:01;99737.63;;;20.52;74.13
54854;BME280;40747;49.480;8.658;2023-09-12T02:20:26;99768.00;;;20.73;74.51
54854;BME280;40747;49.480;8.658;2023-09-12T02:22:51;99784.69;;;20.77;74.49
54854;BME280;40747;49.480;8.658;2023-09-12T02:25:17;99779.38;;;20.87;74.19
54854;BME280;40747;49.480;8.658;2023-09-12T02:27:42;99782.06;;;20.87;74.38
54854;BME280;40747;49.480;8.658;2023-09-12T02:30:07;99780.50;;;20.84;74.24
54854;BME280;40747;49.480;8.658;2023-09-12T02:32:33;99776.00;;;20.85;74.38
54854;BME280;40747;49.480;8.658;2023-09-12T02:34:58;99780.84;;;20.91;74.01
54854;BME280;40747;49.480;8.658;2023-09-12T02:37:24;99749.63;;;20.69;73.98
54854;BME280;40747;49.480;8.658;2023-09-12T02:39:49;99780.25;;;20.87;74.04
54854;BME280;40747;49.480;8.658;2023-09-12T02:42:14;99780.38;;;20.86;74.42
54854;BME280;40747;49.480;8.658;2023-09-12T02:44:40;99771.03;;;20.80;74.36
54854;BME280;40747;49.480;8.658;2023-09-12T02:47:05;99759.34;;;20.81;74.35
54854;BME280;40747;49.480;8.658;2023-09-12T02:49:31;99767.00;;;20.86;74.38
54854;BME280;40747;49.480;8.658;2023-09-12T02:51:56;99764.69;;;20.81;74.26
54854;BME280;40747;49.480;8.658;2023-09-12T02:54:21;99773.81;;;20.90;74.38
54854;BME280;40747;49.480;8.658;2023-09-12T02:56:46;99766.88;;;20.87;74.15
54854;BME280;40747;49.480;8.658;2023-09-12T02:59:12;99778.88;;;20.93;74.29
54854;BME280;40747;49.480;8.658;2023-09-12T03:01:37;99787.41;;;20.87;74.42
54854;BME280;40747;49.480;8.658;2023-09-12T03:04:02;99768.13;;;20.83;74.51
54854;BME280;40747;49.480;8.658;2023-09-12T03:06:28;99771.81;;;20.92;74.71
54854;BME280;40747;49.480;8.658;2023-09-12T03:08:54;99767.84;;;20.86;75.06
54854;BME280;40747;49.480;8.658;2023-09-12T03:11:19;99767.22;;;20.94;74.97
54854;BME280;40747;49.480;8.658;2023-09-12T03:13:44;99768.41;;;21.01;74.76
54854;BME280;40747;49.480;8.658;2023-09-12T03:16:11;99769.88;;;20.94;74.93
54854;BME280;40747;49.480;8.658;2023-09-12T03:18:36;99761.75;;;20.84;75.01
54854;BME280;40747;49.480;8.658;2023-09-12T03:21:01;99764.03;;;21.00;74.68
54854;BME280;40747;49.480;8.658;2023-09-12T03:23:27;99773.50;;;21.04;74.68
54854;BME280;40747;49.480;8.658;2023-09-12T03:25:52;99771.09;;;21.01;74.37
54854;BME280;40747;49.480;8.658;2023-09-12T03:28:18;99763.75;;;21.03;74.12
54854;BME280;40747;49.480;8.658;2023-09-12T03:30:43;99742.31;;;20.82;74.48
54854;BME280;40747;49.480;8.658;2023-09-12T03:33:08;99738.66;;;20.83;74.63
54854;BME280;40747;49.480;8.658;2023-09-12T03:35:34;99745.28;;;21.00;74.38
54854;BME280;40747;49.480;8.658;2023-09-12T03:38:00;99749.13;;;21.07;74.23
54854;BME280;40747;49.480;8.658;2023-09-12T03:40:28;99758.69;;;21.21;74.68
54854;BME280;40747;49.480;8.658;2023-09-12T03:42:54;99761.50;;;21.20;75.16
54854;BME280;40747;49.480;8.658;2023-09-12T03:45:19;99763.94;;;21.23;75.12
54854;BME280;40747;49.480;8.658;2023-09-12T03:47:45;99738.19;;;21.10;75.71
54854;BME280;40747;49.480;8.658;2023-09-12T03:50:12;99753.97;;;21.14;76.91
54854;BME280;40747;49.480;8.658;2023-09-12T03:52:38;99768.19;;;21.25;77.42
54854;BME280;40747;49.480;8.658;2023-09-12T03:55:03;99781.34;;;21.17;78.57
54854;BME280;40747;49.480;8.658;2023-09-12T03:57:28;99780.69;;;21.04;79.29
54854;BME280;40747;49.480;8.658;2023-09-12T03:59:54;99784.25;;;20.93;80.46
54854;BME280;40747;49.480;8.658;2023-09-12T04:02:19;99788.69;;;20.71;81.92
54854;BME280;40747;49.480;8.658;2023-09-12T04:04:44;99798.53;;;20.59;82.13
54854;BME280;40747;49.480;8.658;2023-09-12T04:07:10;99798.69;;;20.46;83.08
54854;BME280;40747;49.480;8.658;2023-09-12T04:09:35;99807.06;;;20.53;83.57
54854;BME280;40747;49.480;8.658;2023-09-12T04:12:00;99809.03;;;20.51;82.90
54854;BME280;40747;49.480;8.658;2023-09-12T04:14:26;99815.69;;;20.57;82.70
54854;BME280;40747;49.480;8.658;2023-09-12T04:16:51;99809.84;;;20.63;83.03
54854;BME280;40747;49.480;8.658;2023-09-12T04:19:17;99818.34;;;20.68;82.15
54854;BME280;40747;49.480;8.658;2023-09-12T04:21:43;99817.38;;;20.69;84.18
54854;BME280;40747;49.480;8.658;2023-09-12T04:24:09;99819.81;;;20.72;84.48
54854;BME280;40747;49.480;8.658;2023-09-12T04:26:34;99817.75;;;20.76;82.93
54854;BME280;40747;49.480;8.658;2023-09-12T04:28:59;99810.56;;;20.76;83.01
54854;BME280;40747;49.480;8.658;2023-09-12T04:31:25;99811.31;;;20.78;81.91
54854;BME280;40747;49.480;8.658;2023-09-12T04:33:51;99807.75;;;20.78;82.85
54854;BME280;40747;49.480;8.658;2023-09-12T04:36:17;99811.31;;;20.78;82.99
54854;BME280;40747;49.480;8.658;2023-09-12T04:38:42;99810.19;;;20.81;84.50
54854;BME280;40747;49.480;8.658;2023-09-12T04:41:08;99817.97;;;20.84;85.88
54854;BME280;40747;49.480;8.658;2023-09-12T04:43:33;99823.31;;;20.84;85.89
54854;BME280;40747;49.480;8.658;2023-09-12T04:45:59;99821.50;;;20.85;86.20
54854;BME280;40747;49.480;8.658;2023-09-12T04:48:24;99815.19;;;20.86;84.68
54854;BME280;40747;49.480;8.658;2023-09-12T04:50:50;99803.16;;;20.80;83.04
54854;BME280;40747;49.480;8.658;2023-09-12T04:53:15;99791.84;;;20.76;84.87
54854;BME280;40747;49.480;8.658;2023-09-12T04:55:40;99816.50;;;20.91;86.27
54854;BME280;40747;49.480;8.658;2023-09-12T04:58:06;99810.41;;;20.89;85.17
54854;BME280;40747;49.480;8.658;2023-09-12T05:00:32;99817.00;;;20.85;86.20
54854;BME280;40747;49.480;8.658;2023-09-12T05:02:58;99830.50;;;20.84;86.86
54854;BME280;40747;49.480;8.658;2023-09-12T05:05:23;99823.25;;;20.74;88.69
54854;BME280;40747;49.480;8.658;2023-09-12T05:07:48;99817.16;;;20.72;87.52
54854;BME280;40747;49.480;8.658;2023-09-12T05:10:14;99829.44;;;20.75;87.72
54854;BME280;40747;49.480;8.658;2023-09-12T05:12:39;99824.44;;;20.70;87.81
54854;BME280;40747;49.480;8.658;2023-09-12T05:15:05;99811.56;;;20.64;85.74
54854;BME280;40747;49.480;8.658;2023-09-12T05:17:30;99815.44;;;20.60;86.11
54854;BME280;40747;49.480;8.658;2023-09-12T05:19:55;99823.25;;;20.52;86.77
54854;BME280;40747;49.480;8.658;2023-09-12T05:22:21;99814.72;;;20.46;87.28
54854;BME280;40747;49.480;8.658;2023-09-12T05:24:46;99812.91;;;20.47;87.48
54854;BME280;40747;49.480;8.658;2023-09-12T05:27:11;99808.91;;;20.53;87.41
54854;BME280;40747;49.480;8.658;2023-09-12T05:29:37;99808.28;;;20.60;86.61
54854;BME280;40747;49.480;8.658;2023-09-12T05:32:03;99812.66;;;20.61;87.85
54854;BME280;40747;49.480;8.658;2023-09-12T05:34:29;99813.38;;;20.52;88.77
54854;BME280;40747;49.480;8.658;2023-09-12T05:36:54;99824.69;;;20.56;88.17
54854;BME280;40747;49.480;8.658;2023-09-12T05:39:19;99817.88;;;20.63;88.38
54854;BME280;40747;49.480;8.658;2023-09-12T05:41:45;99837.81;;;20.70;87.17
54854;BME280;40747;49.480;8.658;2023-09-12T05:44:10;99842.66;;;20.65;85.65
54854;BME280;40747;49.480;8.658;2023-09-12T05:46:38;99844.03;;;20.59;84.21
54854;BME280;40747;49.480;8.658;2023-09-12T05:49:03;99851.19;;;20.70;85.22
54854;BME280;40747;49.480;8.658;2023-09-12T05:51:29;99852.78;;;20.73;86.51
54854;BME280;40747;49.480;8.658;2023-09-12T05:53:54;99855.34;;;20.74;85.98
54854;BME280;40747;49.480;8.658;2023-09-12T05:56:19;99866.06;;;20.74;86.22
54854;BME280;40747;49.480;8.658;2023-09-12T05:58:46;99862.88;;;20.69;87.26
54854;BME280;40747;49.480;8.658;2023-09-12T06:01:11;99846.72;;;20.71;86.38
54854;BME280;40747;49.480;8.658;2023-09-12T06:03:37;99867.25;;;20.82;87.19
54854;BME280;40747;49.480;8.658;2023-09-12T06:06:03;99876.84;;;20.84;87.86
54854;BME280;40747;49.480;8.658;2023-09-12T06:08:28;99862.00;;;20.91;87.72
54854;BME280;40747;49.480;8.658;2023-09-12T06:10:54;99848.34;;;20.94;87.21
54854;BME280;40747;49.480;8.658;2023-09-12T06:13:20;99843.38;;;21.01;87.36
54854;BME280;40747;49.480;8.658;2023-09-12T06:15:46;99839.00;;;21.00;87.99
54854;BME280;40747;49.480;8.658;2023-09-12T06:18:11;99860.00;;;21.05;89.53
54854;BME280;40747;49.480;8.658;2023-09-12T06:20:36;99853.56;;;21.07;89.06
54854;BME280;40747;49.480;8.658;2023-09-12T06:23:02;99854.06;;;21.13;88.32
54854;BME280;40747;49.480;8.658;2023-09-12T06:25:28;99832.41;;;21.04;87.14
54854;BME280;40747;49.480;8.658;2023-09-12T06:27:54;99852.81;;;21.17;86.31
54854;BME280;40747;49.480;8.658;2023-09-12T06:30:19;99849.97;;;21.30;86.29
54854;BME280;40747;49.480;8.658;2023-09-12T06:32:44;99831.16;;;21.41;86.03
54854;BME280;40747;49.480;8.658;2023-09-12T06:35:10;99837.59;;;21.50;84.98
54854;BME280;40747;49.480;8.658;2023-09-12T06:37:37;99828.31;;;21.54;84.10
54854;BME280;40747;49.480;8.658;2023-09-12T06:40:02;99824.69;;;21.55;83.59
54854;BME280;40747;49.480;8.658;2023-09-12T06:42:28;99792.28;;;21.47;83.09
54854;BME280;40747;49.480;8.658;2023-09-12T06:44:54;99810.38;;;21.54;82.41
54854;BME280;40747;49.480;8.658;2023-09-12T06:47:19;99817.66;;;21.64;83.75
54854;BME280;40747;49.480;8.658;2023-09-12T06:49:44;99813.34;;;21.72;82.98
54854;BME280;40747;49.480;8.658;2023-09-12T06:52:10;99832.38;;;21.69;83.48
54854;BME280;40747;49.480;8.658;2023-09-12T06:54:35;99839.38;;;21.60;84.45
54854;BME280;40747;49.480;8.658;2023-09-12T06:57:00;99858.00;;;21.83;84.04
54854;BME280;40747;49.480;8.658;2023-09-12T06:59:26;99860.94;;;22.01;83.66
54854;BME280;40747;49.480;8.658;2023-09-12T07:01:51;99870.56;;;22.04;84.51
54854;BME280;40747;49.480;8.658;2023-09-12T07:04:16;99864.97;;;22.17;83.96
54854;BME280;40747;49.480;8.658;2023-09-12T07:06:42;99871.31;;;22.37;83.42
54854;BME280;40747;49.480;8.658;2023-09-12T07:09:08;99874.81;;;22.58;85.66
54854;BME280;40747;49.480;8.658;2023-09-12T07:11:34;99880.34;;;22.67;86.24
54854;BME280;40747;49.480;8.658;2023-09-12T07:13:59;99885.00;;;22.74;84.39
54854;BME280;40747;49.480;8.658;2023-09-12T07:16:25;99880.53;;;22.85;84.27
54854;BME280;40747;49.480;8.658;2023-09-12T07:18:50;99880.16;;;22.99;83.34
54854;BME280;40747;49.480;8.658;2023-09-12T07:21:15;99862.66;;;23.24;81.88
54854;BME280;40747;49.480;8.658;2023-09-12T07:23:41;99876.41;;;23.51;79.16
54854;BME280;40747;49.480;8.658;2023-09-12T07:26:12;99856.84;;;23.78;79.91
54854;BME280;40747;49.480;8.658;2023-09-12T07:28:37;99866.09;;;24.23;79.06
54854;BME280;40747;49.480;8.658;2023-09-12T07:31:03;99868.91;;;24.69;77.24
54854;BME280;40747;49.480;8.658;2023-09-12T07:33:28;99863.09;;;25.19;74.59
54854;BME280;40747;49.480;8.658;2023-09-12T07:35:53;99862.88;;;25.67;74.47
54854;BME280;40747;49.480;8.658;2023-09-12T07:38:20;99861.22;;;25.74;73.22
54854;BME280;40747;49.480;8.658;2023-09-12T07:40:46;99855.81;;;25.92;71.08
54854;BME280;40747;49.480;8.658;2023-09-12T07:43:11;99856.69;;;26.19;72.86
54854;BME280;40747;49.480;8.658;2023-09-12T07:45:36;99864.91;;;26.52;69.11
54854;BME280;40747;49.480;8.658;2023-09-12T07:48:09;99860.72;;;27.01;67.58
54854;BME280;40747;49.480;8.658;2023-09-12T07:50:36;99857.75;;;27.37;66.32
54854;BME280;40747;49.480;8.658;2023-09-12T07:53:04;99858.13;;;27.67;64.23
54854;BME280;40747;49.480;8.658;2023-09-12T07:55:29;99861.16;;;27.88;61.75
54854;BME280;40747;49.480;8.658;2023-09-12T07:57:59;99862.00;;;28.05;64.24
54854;BME280;40747;49.480;8.658;2023-09-12T08:00:24;99854.59;;;27.66;63.00
54854;BME280;40747;49.480;8.658;2023-09-12T08:02:50;99852.88;;;27.73;64.14
54854;BME280;40747;49.480;8.658;2023-09-12T08:05:15;99867.22;;;28.07;64.91
54854;BME280;40747;49.480;8.658;2023-09-12T08:07:41;99858.22;;;28.23;62.83
54854;BME280;40747;49.480;8.658;2023-09-12T08:10:06;99874.97;;;28.26;61.54
54854;BME280;40747;49.480;8.658;2023-09-12T08:12:32;99865.75;;;28.52;64.37
54854;BME280;40747;49.480;8.658;2023-09-12T08:14:57;99876.16;;;28.80;61.50
54854;BME280;40747;49.480;8.658;2023-09-12T08:17:24;99872.19;;;28.91;61.03
54854;BME280;40747;49.480;8.658;2023-09-12T08:19:49;99864.38;;;28.96;58.90
54854;BME280;40747;49.480;8.658;2023-09-12T08:22:15;99854.91;;;29.47;61.78
54854;BME280;40747;49.480;8.658;2023-09-12T08:24:40;99847.78;;;30.07;60.79
54854;BME280;40747;49.480;8.658;2023-09-12T08:27:06;99852.69;;;29.88;58.54
54854;BME280;40747;49.480;8.658;2023-09-12T08:29:32;99851.59;;;29.98;58.75
54854;BME280;40747;49.480;8.658;2023-09-12T08:31:59;99858.72;;;30.29;58.08
54854;BME280;40747;49.480;8.658;2023-09-12T08:34:25;99854.78;;;30.76;56.17
54854;BME280;40747;49.480;8.658;2023-09-12T08:36:50;99855.75;;;31.27;56.47
54854;BME280;40747;49.480;8.658;2023-09-12T08:39:23;99854.47;;;31.23;54.12
54854;BME280;40747;49.480;8.658;2023-09-12T08:41:50;99852.09;;;31.13;56.38
54854;BME280;40747;49.480;8.658;2023-09-12T08:44:15;99859.13;;;30.55;55.66
54854;BME280;40747;49.480;8.658;2023-09-12T08:46:44;99860.81;;;30.56;56.76
54854;BME280;40747;49.480;8.658;2023-09-12T08:49:10;99865.28;;;30.34;57.86
54854;BME280;40747;49.480;8.658;2023-09-12T08:51:39;99872.25;;;30.52;58.58
54854;BME280;40747;49.480;8.658;2023-09-12T08:54:07;99853.66;;;30.70;57.13
54854;BME280;40747;49.480;8.658;2023-09-12T08:56:34;99868.34;;;30.91;55.98
54854;BME280;40747;49.480;8.658;2023-09-12T08:59:01;99858.06;;;30.71;57.01
54854;BME280;40747;49.480;8.658;2023-09-12T09:01:30;99869.44;;;30.97;57.72
54854;BME280;40747;49.480;8.658;2023-09-12T09:03:56;99867.75;;;30.96;55.52
54854;BME280;40747;49.480;8.658;2023-09-12T09:06:22;99874.34;;;30.86;55.98
54854;BME280;40747;49.480;8.658;2023-09-12T09:08:49;99869.56;;;30.88;55.60
54854;BME280;40747;49.480;8.658;2023-09-12T09:11:14;99869.63;;;30.95;55.32
54854;BME280;40747;49.480;8.658;2023-09-12T09:13:39;99855.63;;;31.57;55.98
54854;BME280;40747;49.480;8.658;2023-09-12T09:16:18;99848.41;;;31.92;55.66
54854;BME280;40747;49.480;8.658;2023-09-12T09:18:52;99853.94;;;32.06;52.77
54854;BME280;40747;49.480;8.658;2023-09-12T09:21:18;99856.47;;;31.57;53.08
54854;BME280;40747;49.480;8.658;2023-09-12T09:23:45;99859.63;;;31.61;53.84
54854;BME280;40747;49.480;8.658;2023-09-12T09:26:11;99870.81;;;31.66;54.86
54854;BME280;40747;49.480;8.658;2023-09-12T09:28:38;99862.50;;;32.02;53.96
54854;BME280;40747;49.480;8.658;2023-09-12T09:31:05;99868.91;;;31.66;52.69
54854;BME280;40747;49.480;8.658;2023-09-12T09:33:35;99864.06;;;31.83;54.65
54854;BME280;40747;49.480;8.658;2023-09-12T09:36:03;99860.56;;;31.46;52.10
54854;BME280;40747;49.480;8.658;2023-09-12T09:38:29;99859.91;;;31.66;55.45
54854;BME280;40747;49.480;8.658;2023-09-12T09:40:55;99844.28;;;31.10;54.36
54854;BME280;40747;49.480;8.658;2023-09-12T09:43:21;99831.00;;;31.43;53.28
54854;BME280;40747;49.480;8.658;2023-09-12T09:45:46;99846.44;;;31.58;55.43
54854;BME280;40747;49.480;8.658;2023-09-12T09:48:23;99842.28;;;31.62;53.28
54854;BME280;40747;49.480;8.658;2023-09-12T09:50:49;99844.50;;;31.51;52.71
54854;BME280;40747;49.480;8.658;2023-09-12T09:53:15;99848.41;;;31.42;53.02
54854;BME280;40747;49.480;8.658;2023-09-12T09:55:40;99845.38;;;31.37;53.14
54854;BME280;40747;49.480;8.658;2023-09-12T09:58:07;99848.19;;;31.22;53.19
54854;BME280;40747;49.480;8.658;2023-09-12T10:00:37;99848.69;;;31.54;54.52
54854;BME280;40747;49.480;8.658;2023-09-12T10:03:05;99845.53;;;31.50;52.27
54854;BME280;40747;49.480;8.658;2023-09-12T10:05:37;99824.94;;;31.19;53.18
54854;BME280;40747;49.480;8.658;2023-09-12T10:08:03;99837.34;;;31.72;53.77
54854;BME280;40747;49.480;8.658;2023-09-12T10:10:32;99832.16;;;31.77;53.95
54854;BME280;40747;49.480;8.658;2023-09-12T10:13:02;99829.63;;;32.04;53.73
54854;BME280;40747;49.480;8.658;2023-09-12T10:15:29;99828.34;;;32.00;53.11
54854;BME280;40747;49.480;8.658;2023-09-12T10:17:59;99812.63;;;32.02;53.55
54854;BME280;40747;49.480;8.658;2023-09-12T10:20:38;99823.69;;;32.29;52.65
54854;BME280;40747;49.480;8.658;2023-09-12T10:23:11;99822.66;;;32.30;53.10
54854;BME280;40747;49.480;8.658;2023-09-12T10:25:40;99832.59;;;32.09;51.97
54854;BME280;40747;49.480;8.658;2023-09-12T10:28:08;99831.69;;;32.02;53.42
54854;BME280;40747;49.480;8.658;2023-09-12T10:30:34;99835.09;;;32.11;52.13
54854;BME280;40747;49.480;8.658;2023-09-12T10:33:02;99831.88;;;31.94;51.66
54854;BME280;40747;49.480;8.658;2023-09-12T10:35:30;99827.69;;;32.26;53.22
54854;BME280;40747;49.480;8.658;2023-09-12T10:37:59;99822.66;;;32.30;52.38
54854;BME280;40747;49.480;8.658;2023-09-12T10:40:26;99825.47;;;32.15;52.96
54854;BME280;40747;49.480;8.658;2023-09-12T10:42:55;99821.56;;;31.89;52.95
54854;BME280;40747;49.480;8.658;2023-09-12T10:45:20;99806.66;;;31.85;52.69
54854;BME280;40747;49.480;8.658;2023-09-12T10:47:46;99829.69;;;31.82;53.44
54854;BME280;40747;49.480;8.658;2023-09-12T10:50:12;99816.63;;;31.49;54.46
54854;BME280;40747;49.480;8.658;2023-09-12T10:52:38;99823.25;;;31.40;53.44
54854;BME280;40747;49.480;8.658;2023-09-12T10:55:05;99832.19;;;31.34;55.20
54854;BME280;40747;49.480;8.658;2023-09-12T10:57:31;99831.94;;;31.29;54.58
54854;BME280;40747;49.480;8.658;2023-09-12T11:02:32;99831.16;;;30.98;54.54
54854;BME280;40747;49.480;8.658;2023-09-12T11:04:58;99822.09;;;30.54;55.23
54854;BME280;40747;49.480;8.658;2023-09-12T11:07:30;99810.38;;;30.39;54.63
54854;BME280;40747;49.480;8.658;2023-09-12T11:10:26;99821.72;;;30.43;54.31
54854;BME280;40747;49.480;8.658;2023-09-12T11:12:53;99818.63;;;30.31;56.11
54854;BME280;40747;49.480;8.658;2023-09-12T11:15:22;99819.13;;;30.49;56.56
54854;BME280;40747;49.480;8.658;2023-09-12T11:17:49;99806.13;;;30.66;54.98
54854;BME280;40747;49.480;8.658;2023-09-12T11:20:15;99800.69;;;31.03;57.08
54854;BME280;40747;49.480;8.658;2023-09-12T11:22:43;99807.69;;;31.34;57.27
54854;BME280;40747;49.480;8.658;2023-09-12T11:25:22;99802.19;;;31.49;52.47
54854;BME280;40747;49.480;8.658;2023-09-12T11:30:17;99797.03;;;31.61;53.29
54854;BME280;40747;49.480;8.658;2023-09-12T11:32:45;99800.56;;;31.33;53.21
54854;BME280;40747;49.480;8.658;2023-09-12T11:35:11;99806.00;;;31.33;54.34
54854;BME280;40747;49.480;8.658;2023-09-12T11:37:38;99799.03;;;31.24;53.46
54854;BME280;40747;49.480;8.658;2023-09-12T11:42:40;99790.63;;;31.68;54.71
54854;BME280;40747;49.480;8.658;2023-09-12T11:45:10;99790.88;;;31.74;54.44
54854;BME280;40747;49.480;8.658;2023-09-12T11:47:42;99797.56;;;31.71;54.04
54854;BME280;40747;49.480;8.658;2023-09-12T11:50:09;99800.56;;;31.83;53.88
54854;BME280;40747;49.480;8.658;2023-09-12T11:52:50;99792.03;;;31.93;52.79
54854;BME280;40747;49.480;8.658;2023-09-12T11:55:22;99785.25;;;32.17;52.95
54854;BME280;40747;49.480;8.658;2023-09-12T11:57:48;99786.59;;;32.28;52.09
54854;BME280;40747;49.480;8.658;2023-09-12T12:00:14;99779.31;;;32.42;52.05
54854;BME280;40747;49.480;8.658;2023-09-12T12:02:39;99784.97;;;32.40;52.45
54854;BME280;40747;49.480;8.658;2023-09-12T12:05:05;99781.66;;;32.51;51.61
54854;BME280;40747;49.480;8.658;2023-09-12T12:07:30;99771.88;;;32.71;50.44
54854;BME280;40747;49.480;8.658;2023-09-12T12:09:56;99782.88;;;32.97;50.41
54854;BME280;40747;49.480;8.658;2023-09-12T12:12:21;99779.75;;;33.21;49.88
54854;BME280;40747;49.480;8.658;2023-09-12T12:14:46;99779.38;;;33.30;51.15
54854;BME280;40747;49.480;8.658;2023-09-12T12:17:12;99750.34;;;33.16;49.36
54854;BME280;40747;49.480;8.658;2023-09-12T12:19:38;99783.09;;;33.03;49.93
54854;BME280;40747;49.480;8.658;2023-09-12T12:22:05;99779.09;;;32.98;50.39
54854;BME280;40747;49.480;8.658;2023-09-12T12:24:43;99770.91;;;33.05;49.78
54854;BME280;40747;49.480;8.658;2023-09-12T12:27:09;99781.00;;;33.18;48.67
54854;BME280;40747;49.480;8.658;2023-09-12T12:29:37;99774.69;;;33.11;48.50
54854;BME280;40747;49.480;8.658;2023-09-12T12:32:04;99774.31;;;33.27;48.34
54854;BME280;40747;49.480;8.658;2023-09-12T12:34:30;99770.53;;;33.55;48.33
54854;BME280;40747;49.480;8.658;2023-09-12T12:36:56;99767.13;;;33.73;47.90
54854;BME280;40747;49.480;8.658;2023-09-12T12:39:21;99768.38;;;33.77;47.65
54854;BME280;40747;49.480;8.658;2023-09-12T12:41:47;99746.13;;;33.67;47.82
54854;BME280;40747;49.480;8.658;2023-09-12T12:44:13;99771.75;;;33.86;47.61
54854;BME280;40747;49.480;8.658;2023-09-12T12:46:56;99769.81;;;34.13;49.00
54854;BME280;40747;49.480;8.658;2023-09-12T12:49:22;99760.75;;;34.13;47.54
54854;BME280;40747;49.480;8.658;2023-09-12T12:51:48;99759.47;;;34.22;48.56
54854;BME280;40747;49.480;8.658;2023-09-12T12:54:13;99753.16;;;34.22;48.41
54854;BME280;40747;49.480;8.658;2023-09-12T12:56:39;99747.75;;;34.08;47.05
54854;BME280;40747;49.480;8.658;2023-09-12T12:59:06;99748.56;;;34.16;47.15
54854;BME280;40747;49.480;8.658;2023-09-12T13:01:34;99749.03;;;33.99;47.34
54854;BME280;40747;49.480;8.658;2023-09-12T13:04:00;99739.59;;;33.95;47.45